sensor_id;sensor_type;location;lat;lon;timestamp;pressure;altitude;pressure_sealevel;temperature;humidity
84496;BME280;74855;51.206;17.408;2024-03-22T00:01:46;100147.28;;;10.80;72.08
84496;BME280;74855;51.206;17.408;2024-03-22T00:06:43;100152.78;;;10.78;71.57
84496;BME280;74855;51.206;17.408;2024-03-22T00:11:40;100150.34;;;10.77;71.91
84496;BME280;74855;51.206;17.408;2024-03-22T00:16:36;100146.69;;;10.78;71.84
84496;BME280;74855;51.206;17.408;2024-03-22T00:21:33;100155.41;;;10.78;71.36
84496;BME280;74855;51.206;17.408;2024-03-22T00:26:29;100151.56;;;10.81;72.07
84496;BME280;74855;51.206;17.408;2024-03-22T00:31:24;100152.38;;;10.81;71.92
84496;BME280;74855;51.206;17.408;2024-03-22T00:36:20;100163.69;;;10.82;71.44
84496;BME280;74855;51.206;17.408;2024-03-22T00:41:17;100159.03;;;10.84;71.30
84496;BME280;74855;51.206;17.408;2024-03-22T00:46:13;100157.22;;;10.84;71.37
84496;BME280;74855;51.206;17.408;2024-03-22T00:51:08;100154.72;;;10.90;71.71
84496;BME280;74855;51.206;17.408;2024-03-22T00:56:05;100155.72;;;10.95;71.31
84496;BME280;74855;51.206;17.408;2024-03-22T01:01:02;100151.84;;;10.98;70.65
84496;BME280;74855;51.206;17.408;2024-03-22T01:05:57;100153.47;;;10.99;70.42
84496;BME280;74855;51.206;17.408;2024-03-22T01:10:53;100151.44;;;11.01;70.30
84496;BME280;74855;51.206;17.408;2024-03-22T01:15:49;100148.81;;;11.01;69.42
84496;BME280;74855;51.206;17.408;2024-03-22T01:20:46;100154.09;;;11.01;69.69
84496;BME280;74855;51.206;17.408;2024-03-22T01:25:42;100137.66;;;10.99;69.44
84496;BME280;74855;51.206;17.408;2024-03-22T01:30:37;100139.47;;;10.98;69.42
84496;BME280;74855;51.206;17.408;2024-03-22T01:35:33;100143.13;;;10.97;69.02
84496;BME280;74855;51.206;17.408;2024-03-22T01:40:30;100138.06;;;10.96;69.15
84496;BME280;74855;51.206;17.408;2024-03-22T01:45:25;100130.16;;;10.96;68.50
84496;BME280;74855;51.206;17.408;2024-03-22T01:50:21;100124.72;;;10.91;68.58
84496;BME280;74855;51.206;17.408;2024-03-22T01:55:17;100126.16;;;10.87;68.37
84496;BME280;74855;51.206;17.408;2024-03-22T02:00:15;100129.22;;;10.83;68.81
84496;BME280;74855;51.206;17.408;2024-03-22T02:05:14;100125.78;;;10.76;67.52
84496;BME280;74855;51.206;17.408;2024-03-22T02:10:10;100116.31;;;10.69;66.90
84496;BME280;74855;51.206;17.408;2024-03-22T02:15:07;100119.56;;;10.64;66.52
84496;BME280;74855;51.206;17.408;2024-03-22T02:20:06;100123.50;;;10.55;65.78
84496;BME280;74855;51.206;17.408;2024-03-22T02:25:04;100122.50;;;10.50;66.09
84496;BME280;74855;51.206;17.408;2024-03-22T02:29:59;100117.84;;;10.45;66.00
84496;BME280;74855;51.206;17.408;2024-03-22T02:34:55;100117.66;;;10.40;65.80
84496;BME280;74855;51.206;17.408;2024-03-22T02:39:51;100116.88;;;10.33;66.05
84496;BME280;74855;51.206;17.408;2024-03-22T02:44:48;100120.34;;;10.27;65.68
84496;BME280;74855;51.206;17.408;2024-03-22T02:49:44;100116.53;;;10.23;65.74
84496;BME280;74855;51.206;17.408;2024-03-22T02:54:39;100120.97;;;10.16;65.91
84496;BME280;74855;51.206;17.408;2024-03-22T02:59:36;100125.63;;;10.14;66.47
84496;BME280;74855;51.206;17.408;2024-03-22T03:04:33;100121.00;;;10.09;66.61
84496;BME280;74855;51.206;17.408;2024-03-22T03:09:29;100103.19;;;10.04;66.59
84496;BME280;74855;51.206;17.408;2024-03-22T03:14:24;100110.66;;;10.01;67.18
84496;BME280;74855;51.206;17.408;2024-03-22T03:19:20;100099.75;;;9.97;67.18
84496;BME280;74855;51.206;17.408;2024-03-22T03:24:17;100095.09;;;9.93;67.46
84496;BME280;74855;51.206;17.408;2024-03-22T03:29:13;100090.44;;;9.88;67.56
84496;BME280;74855;51.206;17.408;2024-03-22T03:34:08;100098.78;;;9.85;68.35
84496;BME280;74855;51.206;17.408;2024-03-22T03:39:04;100093.91;;;9.82;68.65
84496;BME280;74855;51.206;17.408;2024-03-22T03:44:01;100105.88;;;9.78;68.67
84496;BME280;74855;51.206;17.408;2024-03-22T03:48:58;100103.63;;;9.75;69.12
84496;BME280;74855;51.206;17.408;2024-03-22T03:53:54;100096.75;;;9.74;69.20
84496;BME280;74855;51.206;17.408;2024-03-22T03:58:49;100093.53;;;9.72;69.56
84496;BME280;74855;51.206;17.408;2024-03-22T04:03:48;100093.31;;;9.67;69.93
84496;BME280;74855;51.206;17.408;2024-03-22T04:08:45;100095.56;;;9.63;70.18
84496;BME280;74855;51.206;17.408;2024-03-22T04:13:40;100101.22;;;9.60;70.25
84496;BME280;74855;51.206;17.408;2024-03-22T04:18:36;100091.50;;;9.54;71.03
84496;BME280;74855;51.206;17.408;2024-03-22T04:23:33;100099.00;;;9.51;71.06
84496;BME280;74855;51.206;17.408;2024-03-22T04:28:29;100095.75;;;9.49;71.72
84496;BME280;74855;51.206;17.408;2024-03-22T04:33:25;100091.75;;;9.46;72.07
84496;BME280;74855;51.206;17.408;2024-03-22T04:38:20;100093.13;;;9.42;71.90
84496;BME280;74855;51.206;17.408;2024-03-22T04:43:17;100096.59;;;9.43;71.94
84496;BME280;74855;51.206;17.408;2024-03-22T04:48:16;100096.78;;;9.41;72.00
84496;BME280;74855;51.206;17.408;2024-03-22T04:53:12;100099.03;;;9.44;72.43
84496;BME280;74855;51.206;17.408;2024-03-22T04:58:08;100104.91;;;9.46;72.15
84496;BME280;74855;51.206;17.408;2024-03-22T05:03:05;100110.34;;;9.45;72.50
84496;BME280;74855;51.206;17.408;2024-03-22T05:08:01;100107.72;;;9.45;72.53
84496;BME280;74855;51.206;17.408;2024-03-22T05:12:57;100099.63;;;9.40;72.48
84496;BME280;74855;51.206;17.408;2024-03-22T05:17:55;100097.19;;;9.45;72.94
84496;BME280;74855;51.206;17.408;2024-03-22T05:22:52;100090.50;;;9.42;72.39
84496;BME280;74855;51.206;17.408;2024-03-22T05:27:48;100094.94;;;9.48;72.58
84496;BME280;74855;51.206;17.408;2024-03-22T05:32:43;100100.63;;;9.52;72.73
84496;BME280;74855;51.206;17.408;2024-03-22T05:37:39;100099.19;;;9.56;72.08
84496;BME280;74855;51.206;17.408;2024-03-22T05:42:36;100111.97;;;9.59;72.08
84496;BME280;74855;51.206;17.408;2024-03-22T05:47:32;100108.91;;;9.62;72.09
84496;BME280;74855;51.206;17.408;2024-03-22T05:52:27;100109.09;;;9.67;72.70
84496;BME280;74855;51.206;17.408;2024-03-22T05:57:23;100113.16;;;9.76;72.19
84496;BME280;74855;51.206;17.408;2024-03-22T06:02:20;100103.44;;;9.83;72.68
84496;BME280;74855;51.206;17.408;2024-03-22T06:07:17;100114.56;;;9.92;72.08
84496;BME280;74855;51.206;17.408;2024-03-22T06:12:12;100107.81;;;10.09;71.71
84496;BME280;74855;51.206;17.408;2024-03-22T06:17:08;100100.47;;;10.31;71.92
84496;BME280;74855;51.206;17.408;2024-03-22T06:22:05;100098.72;;;10.56;71.01
84496;BME280;74855;51.206;17.408;2024-03-22T06:27:01;100092.16;;;10.72;70.15
84496;BME280;74855;51.206;17.408;2024-03-22T06:31:56;100103.66;;;10.84;69.68
84496;BME280;74855;51.206;17.408;2024-03-22T06:36:52;100096.88;;;10.95;69.28
84496;BME280;74855;51.206;17.408;2024-03-22T06:41:49;100095.56;;;11.10;68.10
84496;BME280;74855;51.206;17.408;2024-03-22T06:46:44;100100.38;;;11.20;66.73
84496;BME280;74855;51.206;17.408;2024-03-22T06:51:40;100096.94;;;11.19;65.35
84496;BME280;74855;51.206;17.408;2024-03-22T06:56:37;100091.31;;;11.34;65.11
84496;BME280;74855;51.206;17.408;2024-03-22T07:01:34;100084.69;;;11.50;64.23
84496;BME280;74855;51.206;17.408;2024-03-22T07:06:29;100072.38;;;11.62;62.88
84496;BME280;74855;51.206;17.408;2024-03-22T07:11:25;100070.25;;;11.77;61.55
84496;BME280;74855;51.206;17.408;2024-03-22T07:16:21;100071.50;;;11.68;59.83
84496;BME280;74855;51.206;17.408;2024-03-22T07:21:18;100067.91;;;11.62;58.65
84496;BME280;74855;51.206;17.408;2024-03-22T07:26:13;100066.28;;;11.61;59.58
84496;BME280;74855;51.206;17.408;2024-03-22T07:31:09;100081.03;;;11.69;58.50
84496;BME280;74855;51.206;17.408;2024-03-22T07:36:05;100087.03;;;11.83;59.61
84496;BME280;74855;51.206;17.408;2024-03-22T07:41:02;100089.97;;;12.11;58.88
84496;BME280;74855;51.206;17.408;2024-03-22T07:45:58;100085.81;;;12.52;57.48
84496;BME280;74855;51.206;17.408;2024-03-22T07:50:56;100074.31;;;12.88;57.26
84496;BME280;74855;51.206;17.408;2024-03-22T07:55:51;100076.59;;;13.25;54.89
84496;BME280;74855;51.206;17.408;2024-03-22T08:00:54;100062.22;;;13.56;55.00
84496;BME280;74855;51.206;17.408;2024-03-22T08:05:50;100063.13;;;13.85;53.45
84496;BME280;74855;51.206;17.408;2024-03-22T08:10:45;100053.91;;;14.39;52.44
84496;BME280;74855;51.206;17.408;2024-03-22T08:15:41;100046.50;;;14.70;50.98
84496;BME280;74855;51.206;17.408;2024-03-22T08:20:38;100047.44;;;14.64;50.28
84496;BME280;74855;51.206;17.408;2024-03-22T08:25:34;100038.94;;;14.78;49.68
84496;BME280;74855;51.206;17.408;2024-03-22T08:30:30;100030.66;;;15.08;49.59
84496;BME280;74855;51.206;17.408;2024-03-22T08:35:25;100039.94;;;15.22;48.48
84496;BME280;74855;51.206;17.408;2024-03-22T08:40:22;100036.53;;;14.94;49.07
84496;BME280;74855;51.206;17.408;2024-03-22T08:45:18;100032.25;;;14.76;49.10
84496;BME280;74855;51.206;17.408;2024-03-22T08:50:13;100014.00;;;14.79;49.45
84496;BME280;74855;51.206;17.408;2024-03-22T08:55:09;100011.28;;;15.08;48.82
84496;BME280;74855;51.206;17.408;2024-03-22T09:00:07;100006.47;;;15.43;48.34
84496;BME280;74855;51.206;17.408;2024-03-22T09:05:03;100001.03;;;15.72;47.61
84496;BME280;74855;51.206;17.408;2024-03-22T09:09:59;99988.97;;;16.08;46.81
84496;BME280;74855;51.206;17.408;2024-03-22T09:14:55;99990.03;;;16.07;45.92
84496;BME280;74855;51.206;17.408;2024-03-22T09:19:52;99994.13;;;15.71;46.51
84496;BME280;74855;51.206;17.408;2024-03-22T09:24:48;99993.75;;;15.84;46.58
84496;BME280;74855;51.206;17.408;2024-03-22T09:29:43;99991.66;;;16.61;46.27
84496;BME280;74855;51.206;17.408;2024-03-22T09:34:39;99993.66;;;18.17;42.23
84496;BME280;74855;51.206;17.408;2024-03-22T09:39:36;99989.81;;;17.88;42.15
84496;BME280;74855;51.206;17.408;2024-03-22T09:44:32;99990.53;;;17.63;42.60
84496;BME280;74855;51.206;17.408;2024-03-22T09:49:28;99981.81;;;17.36;42.59
84496;BME280;74855;51.206;17.408;2024-03-22T09:54:25;99985.44;;;17.14;42.98
84496;BME280;74855;51.206;17.408;2024-03-22T09:59:22;99976.75;;;16.97;43.14
84496;BME280;74855;51.206;17.408;2024-03-22T10:04:18;99970.06;;;16.90;42.90
84496;BME280;74855;51.206;17.408;2024-03-22T10:09:13;99958.13;;;16.97;43.13
84496;BME280;74855;51.206;17.408;2024-03-22T10:14:11;99955.91;;;17.21;42.68
84496;BME280;74855;51.206;17.408;2024-03-22T10:19:07;99947.75;;;16.96;44.28
84496;BME280;74855;51.206;17.408;2024-03-22T10:24:03;99950.34;;;16.59;44.49
84496;BME280;74855;51.206;17.408;2024-03-22T10:28:59;99941.91;;;16.99;44.14
84496;BME280;74855;51.206;17.408;2024-03-22T10:33:55;99953.38;;;17.51;44.00
84496;BME280;74855;51.206;17.408;2024-03-22T10:38:52;99939.00;;;18.70;41.33
84496;BME280;74855;51.206;17.408;2024-03-22T10:43:49;99938.66;;;19.22;40.29
84496;BME280;74855;51.206;17.408;2024-03-22T10:48:45;99943.00;;;18.93;40.25
84496;BME280;74855;51.206;17.408;2024-03-22T10:53:41;99931.22;;;18.43;39.90
84496;BME280;74855;51.206;17.408;2024-03-22T10:58:41;99920.28;;;18.45;40.62
84496;BME280;74855;51.206;17.408;2024-03-22T11:03:36;99917.38;;;18.67;39.52
84496;BME280;74855;51.206;17.408;2024-03-22T11:08:32;99919.50;;;18.85;39.74
84496;BME280;74855;51.206;17.408;2024-03-22T11:13:28;99915.72;;;19.06;38.83
84496;BME280;74855;51.206;17.408;2024-03-22T11:18:25;99896.19;;;19.11;37.46
84496;BME280;74855;51.206;17.408;2024-03-22T11:23:21;99889.22;;;19.15;38.06
84496;BME280;74855;51.206;17.408;2024-03-22T11:28:17;99861.78;;;18.94;37.89
84496;BME280;74855;51.206;17.408;2024-03-22T11:33:13;99871.81;;;19.22;36.12
84496;BME280;74855;51.206;17.408;2024-03-22T11:38:10;99862.94;;;19.37;36.26
84496;BME280;74855;51.206;17.408;2024-03-22T11:43:05;99855.56;;;19.19;36.42
84496;BME280;74855;51.206;17.408;2024-03-22T11:48:02;99843.59;;;18.91;36.38
84496;BME280;74855;51.206;17.408;2024-03-22T11:52:59;99824.72;;;18.37;36.86
84496;BME280;74855;51.206;17.408;2024-03-22T11:57:57;99825.22;;;17.68;37.96
84496;BME280;74855;51.206;17.408;2024-03-22T12:02:53;99812.34;;;17.45;38.42
84496;BME280;74855;51.206;17.408;2024-03-22T12:07:51;99817.34;;;17.21;38.18
84496;BME280;74855;51.206;17.408;2024-03-22T12:12:47;99798.88;;;17.04;39.05
84496;BME280;74855;51.206;17.408;2024-03-22T12:17:45;99793.78;;;16.98;39.58
84496;BME280;74855;51.206;17.408;2024-03-22T12:22:41;99783.63;;;16.84;39.72
84496;BME280;74855;51.206;17.408;2024-03-22T12:27:38;99778.34;;;16.95;40.14
84496;BME280;74855;51.206;17.408;2024-03-22T12:32:34;99762.94;;;17.02;39.41
84496;BME280;74855;51.206;17.408;2024-03-22T12:37:31;99750.75;;;17.21;40.11
84496;BME280;74855;51.206;17.408;2024-03-22T12:42:26;99755.25;;;17.20;39.78
84496;BME280;74855;51.206;17.408;2024-03-22T12:47:22;99757.00;;;16.84;40.30
84496;BME280;74855;51.206;17.408;2024-03-22T12:52:18;99752.84;;;16.57;41.30
84496;BME280;74855;51.206;17.408;2024-03-22T12:57:15;99748.13;;;16.27;41.40
84496;BME280;74855;51.206;17.408;2024-03-22T13:02:11;99744.88;;;16.15;41.68
84496;BME280;74855;51.206;17.408;2024-03-22T13:07:07;99738.22;;;16.12;41.50
84496;BME280;74855;51.206;17.408;2024-03-22T13:12:03;99725.53;;;16.24;40.82
84496;BME280;74855;51.206;17.408;2024-03-22T13:17:00;99733.00;;;16.32;40.65
84496;BME280;74855;51.206;17.408;2024-03-22T13:21:56;99711.56;;;16.49;40.61
84496;BME280;74855;51.206;17.408;2024-03-22T13:26:51;99700.44;;;16.57;40.71
84496;BME280;74855;51.206;17.408;2024-03-22T13:31:47;99696.47;;;16.60;40.47
84496;BME280;74855;51.206;17.408;2024-03-22T13:36:44;99680.50;;;16.65;40.71
84496;BME280;74855;51.206;17.408;2024-03-22T13:41:40;99670.41;;;16.67;40.95
84496;BME280;74855;51.206;17.408;2024-03-22T13:46:35;99659.81;;;16.82;40.68
84496;BME280;74855;51.206;17.408;2024-03-22T13:51:31;99659.88;;;17.12;40.39
84496;BME280;74855;51.206;17.408;2024-03-22T13:56:28;99647.31;;;16.93;40.80
84496;BME280;74855;51.206;17.408;2024-03-22T14:01:23;99647.25;;;16.67;40.72
84496;BME280;74855;51.206;17.408;2024-03-22T14:06:19;99642.13;;;16.51;41.68
84496;BME280;74855;51.206;17.408;2024-03-22T14:11:14;99635.94;;;16.40;41.23
84496;BME280;74855;51.206;17.408;2024-03-22T14:16:11;99634.56;;;16.32;41.65
84496;BME280;74855;51.206;17.408;2024-03-22T14:21:07;99623.66;;;16.29;41.63
84496;BME280;74855;51.206;17.408;2024-03-22T14:26:03;99620.44;;;16.22;42.43
84496;BME280;74855;51.206;17.408;2024-03-22T14:30:58;99612.19;;;16.18;42.20
84496;BME280;74855;51.206;17.408;2024-03-22T14:35:55;99605.97;;;16.02;42.70
84496;BME280;74855;51.206;17.408;2024-03-22T14:40:51;99596.09;;;15.93;42.86
84496;BME280;74855;51.206;17.408;2024-03-22T14:45:47;99595.78;;;15.84;43.64
84496;BME280;74855;51.206;17.408;2024-03-22T14:50:42;99592.22;;;15.69;43.33
84496;BME280;74855;51.206;17.408;2024-03-22T14:55:40;99564.66;;;15.43;43.86
84496;BME280;74855;51.206;17.408;2024-03-22T15:00:36;99560.94;;;15.44;44.14
84496;BME280;74855;51.206;17.408;2024-03-22T15:05:32;99559.34;;;15.43;44.21
84496;BME280;74855;51.206;17.408;2024-03-22T15:10:28;99546.06;;;15.43;43.54
84496;BME280;74855;51.206;17.408;2024-03-22T15:15:25;99544.94;;;15.34;44.09
84496;BME280;74855;51.206;17.408;2024-03-22T15:20:20;99526.72;;;15.10;44.14
84496;BME280;74855;51.206;17.408;2024-03-22T15:25:16;99526.59;;;14.95;44.73
84496;BME280;74855;51.206;17.408;2024-03-22T15:30:13;99533.13;;;14.82;45.45
84496;BME280;74855;51.206;17.408;2024-03-22T15:35:10;99529.31;;;14.73;46.29
84496;BME280;74855;51.206;17.408;2024-03-22T15:40:07;99519.19;;;14.65;46.85
84496;BME280;74855;51.206;17.408;2024-03-22T15:45:05;99505.03;;;14.60;46.68
84496;BME280;74855;51.206;17.408;2024-03-22T15:50:01;99509.22;;;14.51;46.96
84496;BME280;74855;51.206;17.408;2024-03-22T15:54:58;99496.66;;;14.41;47.60
84496;BME280;74855;51.206;17.408;2024-03-22T15:59:54;99500.78;;;14.32;48.48
84496;BME280;74855;51.206;17.408;2024-03-22T16:04:50;99491.41;;;14.24;48.75
84496;BME280;74855;51.206;17.408;2024-03-22T16:09:47;99477.31;;;14.19;49.03
84496;BME280;74855;51.206;17.408;2024-03-22T16:14:44;99480.72;;;14.14;49.24
84496;BME280;74855;51.206;17.408;2024-03-22T16:19:39;99477.75;;;14.11;49.51
84496;BME280;74855;51.206;17.408;2024-03-22T16:24:36;99478.25;;;14.08;50.27
84496;BME280;74855;51.206;17.408;2024-03-22T16:29:32;99473.69;;;14.03;49.86
84496;BME280;74855;51.206;17.408;2024-03-22T16:34:29;99470.97;;;13.98;50.34
84496;BME280;74855;51.206;17.408;2024-03-22T16:39:25;99471.97;;;13.92;50.35
84496;BME280;74855;51.206;17.408;2024-03-22T16:44:20;99475.84;;;13.84;50.19
84496;BME280;74855;51.206;17.408;2024-03-22T16:49:16;99477.34;;;13.75;50.74
84496;BME280;74855;51.206;17.408;2024-03-22T16:54:19;99474.56;;;13.65;51.17
84496;BME280;74855;51.206;17.408;2024-03-22T16:59:15;99469.16;;;13.55;50.81
84496;BME280;74855;51.206;17.408;2024-03-22T17:04:10;99467.44;;;13.44;52.06
84496;BME280;74855;51.206;17.408;2024-03-22T17:09:06;99469.13;;;13.33;51.91
84496;BME280;74855;51.206;17.408;2024-03-22T17:14:03;99465.03;;;13.25;52.06
84496;BME280;74855;51.206;17.408;2024-03-22T17:18:59;99460.97;;;13.18;52.27
84496;BME280;74855;51.206;17.408;2024-03-22T17:23:54;99447.41;;;13.14;52.05
84496;BME280;74855;51.206;17.408;2024-03-22T17:28:50;99446.84;;;13.12;52.70
84496;BME280;74855;51.206;17.408;2024-03-22T17:33:47;99452.72;;;13.14;52.83
84496;BME280;74855;51.206;17.408;2024-03-22T17:38:49;99446.03;;;13.12;52.66
84496;BME280;74855;51.206;17.408;2024-03-22T17:43:46;99445.81;;;13.13;52.88
84496;BME280;74855;51.206;17.408;2024-03-22T17:48:42;99443.16;;;13.13;53.35
84496;BME280;74855;51.206;17.408;2024-03-22T17:53:39;99439.94;;;13.11;52.91
84496;BME280;74855;51.206;17.408;2024-03-22T17:58:34;99435.13;;;13.08;53.69
84496;BME280;74855;51.206;17.408;2024-03-22T18:03:30;99430.56;;;13.04;53.49
84496;BME280;74855;51.206;17.408;2024-03-22T18:08:26;99425.50;;;13.02;53.92
84496;BME280;74855;51.206;17.408;2024-03-22T18:13:23;99425.50;;;13.02;54.21
84496;BME280;74855;51.206;17.408;2024-03-22T18:18:18;99437.63;;;12.98;54.14
84496;BME280;74855;51.206;17.408;2024-03-22T18:23:16;99423.84;;;12.96;53.86
84496;BME280;74855;51.206;17.408;2024-03-22T18:28:11;99422.00;;;12.97;53.64
84496;BME280;74855;51.206;17.408;2024-03-22T18:33:08;99423.59;;;12.98;53.78
84496;BME280;74855;51.206;17.408;2024-03-22T18:38:04;99422.00;;;12.97;53.89
84496;BME280;74855;51.206;17.408;2024-03-22T18:43:00;99411.66;;;12.95;53.20
84496;BME280;74855;51.206;17.408;2024-03-22T18:47:55;99406.13;;;12.97;52.70
84496;BME280;74855;51.206;17.408;2024-03-22T18:52:52;99412.22;;;12.97;53.08
84496;BME280;74855;51.206;17.408;2024-03-22T18:57:48;99402.69;;;12.96;53.09
84496;BME280;74855;51.206;17.408;2024-03-22T19:02:46;99402.44;;;12.98;52.87
84496;BME280;74855;51.206;17.408;2024-03-22T19:07:41;99404.59;;;13.01;52.82
84496;BME280;74855;51.206;17.408;2024-03-22T19:12:38;99383.41;;;13.01;53.02
84496;BME280;74855;51.206;17.408;2024-03-22T19:17:34;99387.66;;;13.02;52.62
84496;BME280;74855;51.206;17.408;2024-03-22T19:22:32;99386.31;;;12.99;52.20
84496;BME280;74855;51.206;17.408;2024-03-22T19:27:28;99390.25;;;12.97;53.19
84496;BME280;74855;51.206;17.408;2024-03-22T19:32:25;99387.28;;;12.93;52.41
84496;BME280;74855;51.206;17.408;2024-03-22T19:37:21;99375.34;;;12.91;53.38
84496;BME280;74855;51.206;17.408;2024-03-22T19:42:17;99376.38;;;12.90;53.32
84496;BME280;74855;51.206;17.408;2024-03-22T19:47:12;99379.53;;;12.87;52.92
84496;BME280;74855;51.206;17.408;2024-03-22T19:52:09;99366.78;;;12.83;53.53
84496;BME280;74855;51.206;17.408;2024-03-22T19:57:05;99364.94;;;12.84;53.66
84496;BME280;74855;51.206;17.408;2024-03-22T20:02:01;99359.09;;;12.82;53.80
84496;BME280;74855;51.206;17.408;2024-03-22T20:06:56;99358.28;;;12.81;53.89
84496;BME280;74855;51.206;17.408;2024-03-22T20:11:54;99364.38;;;12.82;53.89
84496;BME280;74855;51.206;17.408;2024-03-22T20:16:51;99358.28;;;12.81;54.38
84496;BME280;74855;51.206;17.408;2024-03-22T20:21:48;99352.69;;;12.78;54.75
84496;BME280;74855;51.206;17.408;2024-03-22T20:26:43;99342.91;;;12.78;54.23
84496;BME280;74855;51.206;17.408;2024-03-22T20:31:40;99343.31;;;12.70;54.77
84496;BME280;74855;51.206;17.408;2024-03-22T20:36:36;99346.19;;;12.69;54.62
